Terminal Aerodrome Forecast
Issued by NWS Shreveport, LA

Home | Current Version | Previous Version | Text Only | Print | Product List | Glossary On
Versions: 1 2 3 4 5 6 7 8 9 10 11 12 13 14 15 16 17 18 19 20 21 22 23 24 25 26 27
000
FTUS44 KSHV 221125
TAFSHV
TAF
KSHV 221125Z 2212/2312 06005KT P6SM -SHRA SCT030 OVC070
      TEMPO 2212/2216 3SM SHRA BR OVC020
     FM222000 07008KT P6SM SCT035 BKN120
     FM230000 VRB03KT P6SM BKN250
      TEMPO 2308/2312 3SM BR BKN015=

USA.gov is the U.S. government's official web portal to all federal, state and local government web resources and services.